This is the latest recevied weather packets stored in our database for station/object SQ2LXT-10. If no packets are shown the sender has not sent any weather packets the latest 10 day(s).
| Time | Temp. | Humidity | Pressure | Rain* | Wind** | Luminosity | Snow |
|---|---|---|---|---|---|---|---|
| 1777238983 | 0° C | 70% | 1018.8 hPa | - | - | - | - |
| 1777238083 | 0.56° C | 67% | 1018.9 hPa | - | - | - | - |
| 1777237183 | 1.11° C | 60% | 1019 hPa | - | - | - | - |
| 1777236282 | 1.67° C | 54% | 1019 hPa | - | - | - | - |
| 1777235382 | 2.78° C | 48% | 1019.1 hPa | - | - | - | - |
| 1777234486 | 3.89° C | 41% | 1019 hPa | - | - | - | - |
| 1777233586 | 5° C | 36% | 1018.9 hPa | - | - | - | - |
| 1777232686 | 5.56° C | 35% | 1018.8 hPa | - | - | - | - |
| 1777231782 | 5.56° C | 35% | 1018.7 hPa | - | - | - | - |
| 1777230882 | 5° C | 36% | 1018.7 hPa | - | - | - | - |
| 1777229982 | 5.56° C | 35% | 1018.6 hPa | - | - | - | - |
| 1777229082 | 5.56° C | 34% | 1018.5 hPa | - | - | - | - |
| 1777227282 | 6.67° C | 31% | 1018.1 hPa | - | - | - | - |
| 1777226382 | 7.22° C | 29% | 1017.9 hPa | - | - | - | - |
| 1777225482 | 8.33° C | 27% | 1017.9 hPa | - | - | - | - |
| 1777224582 | 8.89° C | 23% | 1017.9 hPa | - | - | - | - |
| 1777223682 | 9.44° C | 24% | 1017.6 hPa | - | - | - | - |
| 1777222782 | 10° C | 23% | 1017.6 hPa | - | - | - | - |
| 1777221882 | 10° C | 24% | 1017.5 hPa | - | - | - | - |
| 1777220981 | 10° C | 24% | 1017.5 hPa | - | - | - | - |
| 1777220085 | 10.56° C | 23% | 1017.4 hPa | - | - | - | - |
| 1777219181 | 10.56° C | 21% | 1017.3 hPa | - | - | - | - |
| 1777218281 | 10.56° C | 22% | 1017.3 hPa | - | - | - | - |
| 1777217381 | 10.56° C | 21% | 1017.2 hPa | - | - | - | - |
| 1777216481 | 10.56° C | 22% | 1017.2 hPa | - | - | - | - |
* Rain since midnight (hover to see other rain measurements)
** Current wind speed in m/s (hover to see current wind gust speed)